Time;durP1;ratioP1;P1;durP2;ratioP2;P2;SDS_P1;SDS_P2;PMS_P1;PMS_P2;Temp;Humidity;BMP_temperature;BMP_pressure;BME280_temperature;BME280_humidity;BME280_pressure;Samples;Min_cycle;Max_cycle;Signal;HPM_P1;HPM_P2
2021/12/18 00:01:17;;;;;;;14.17;10.03;;;;;;;;;;5076208;28;20251;-91
2021/12/18 00:03:45;;;;;;;14.17;9.53;;;;;;;;;;5076337;28;20193;-91
2021/12/18 00:06:12;;;;;;;13.60;8.97;;;;;;;;;;5068243;28;20208;-91
2021/12/18 00:08:40;;;;;;;17.30;10.43;;;;;;;;;;5076051;28;20213;-91
2021/12/18 00:11:09;;;;;;;13.17;9.23;;;;;;;;;;5071431;28;20229;-91
2021/12/18 00:13:37;;;;;;;17.40;11.43;;;;;;;;;;5076165;28;20194;-91
2021/12/18 00:16:04;;;;;;;17.67;12.07;;;;;;;;;;5075799;28;20666;-91
2021/12/18 00:18:32;;;;;;;17.20;11.50;;;;;;;;;;5076146;28;20220;-91
2021/12/18 00:20:59;;;;;;;17.47;11.37;;;;;;;;;;5075671;28;20229;-91
2021/12/18 00:23:27;;;;;;;16.70;11.17;;;;;;;;;;5075744;28;20551;-91
2021/12/18 00:25:54;;;;;;;15.33;9.80;;;;;;;;;;5075667;28;20213;-91
2021/12/18 00:28:23;;;;;;;17.87;10.70;;;;;;;;;;5075192;28;20499;-91
2021/12/18 00:30:50;;;;;;;18.13;11.37;;;;;;;;;;5075137;28;20239;-91
2021/12/18 00:33:18;;;;;;;17.07;10.77;;;;;;;;;;5075343;28;20201;-91
2021/12/18 00:35:45;;;;;;;19.53;12.27;;;;;;;;;;5069624;28;20202;-91
2021/12/18 00:38:12;;;;;;;21.13;12.00;;;;;;;;;;5062279;28;20275;-91
2021/12/18 00:40:47;;;;;;;19.83;10.53;;;;;;;;;;5075550;28;20225;-91
2021/12/18 00:43:24;;;;;;;18.03;11.00;;;;;;;;;;5075808;28;20211;-91
2021/12/18 00:45:53;;;;;;;16.97;10.83;;;;;;;;;;5074913;28;20212;-91
2021/12/18 00:48:20;;;;;;;14.40;9.53;;;;;;;;;;5074049;28;20238;-91
2021/12/18 00:50:48;;;;;;;17.40;9.73;;;;;;;;;;5074249;28;20229;-91
2021/12/18 00:53:16;;;;;;;17.60;10.63;;;;;;;;;;5071842;28;20205;-92
2021/12/18 00:55:43;;;;;;;17.53;10.53;;;;;;;;;;5075482;28;20278;-91
2021/12/18 00:58:11;;;;;;;17.30;9.73;;;;;;;;;;5075189;28;20262;-91
2021/12/18 01:00:38;;;;;;;15.53;9.50;;;;;;;;;;5075774;28;20286;-91
2021/12/18 01:03:15;;;;;;;14.97;10.00;;;;;;;;;;5074964;28;20267;-91
2021/12/18 01:05:42;;;;;;;16.57;9.63;;;;;;;;;;5075229;28;20277;-91
2021/12/18 01:08:09;;;;;;;17.90;10.20;;;;;;;;;;5074669;28;20255;-91
2021/12/18 01:10:52;;;;;;;17.60;10.23;;;;;;;;;;5074492;28;20217;-91
2021/12/18 01:13:25;;;;;;;19.23;12.20;;;;;;;;;;5067933;28;20334;-91
2021/12/18 01:15:55;;;;;;;19.43;10.87;;;;;;;;;;5075396;28;20212;-91
2021/12/18 01:23:53;;;;;;;16.37;8.97;;;;;;;;;;5074426;28;20208;-91
2021/12/18 01:26:21;;;;;;;18.47;11.23;;;;;;;;;;5073085;28;20713;-91
2021/12/18 01:28:48;;;;;;;18.87;11.30;;;;;;;;;;5064564;28;20206;-91
2021/12/18 01:31:15;;;;;;;17.60;10.70;;;;;;;;;;5074740;28;20650;-91
2021/12/18 01:33:44;;;;;;;17.20;10.60;;;;;;;;;;5075339;28;20217;-91
2021/12/18 01:36:11;;;;;;;15.30;9.80;;;;;;;;;;5074479;28;20197;-91
2021/12/18 01:38:39;;;;;;;15.40;10.13;;;;;;;;;;5074378;28;20796;-91
2021/12/18 01:41:06;;;;;;;15.00;8.40;;;;;;;;;;5074250;28;20298;-91
2021/12/18 01:46:39;;;;;;;17.20;10.10;;;;;;;;;;5056429;28;20633;-91
2021/12/18 01:52:17;;;;;;;12.63;7.97;;;;;;;;;;5047370;28;20898;-91
2021/12/18 01:54:44;;;;;;;15.93;9.93;;;;;;;;;;5074650;28;20197;-92
2021/12/18 01:57:12;;;;;;;16.30;9.50;;;;;;;;;;5066529;28;20209;-91
2021/12/18 01:59:41;;;;;;;16.70;10.23;;;;;;;;;;5071597;28;20259;-91
2021/12/18 02:02:40;;;;;;;14.93;9.20;;;;;;;;;;5069197;28;20270;-91
2021/12/18 02:05:09;;;;;;;17.40;9.07;;;;;;;;;;5073762;28;20225;-91
2021/12/18 02:07:36;;;;;;;16.60;9.43;;;;;;;;;;5073901;28;20926;-91
2021/12/18 02:10:08;;;;;;;15.37;8.90;;;;;;;;;;5071578;28;20263;-91
2021/12/18 02:12:44;;;;;;;13.27;8.50;;;;;;;;;;5074208;28;20593;-91
2021/12/18 02:20:58;;;;;;;13.43;8.63;;;;;;;;;;5030686;28;20222;-91
2021/12/18 02:23:25;;;;;;;14.60;8.13;;;;;;;;;;5031847;28;20210;-91
2021/12/18 02:25:52;;;;;;;16.23;8.80;;;;;;;;;;5040275;28;20214;-92
2021/12/18 02:28:23;;;;;;;15.23;8.57;;;;;;;;;;5074069;28;20197;-92
2021/12/18 02:30:52;;;;;;;16.03;9.33;;;;;;;;;;5074016;28;20225;-91
2021/12/18 02:33:19;;;;;;;14.00;9.13;;;;;;;;;;5074693;28;20208;-91
2021/12/18 02:35:48;;;;;;;15.80;9.20;;;;;;;;;;5061279;28;20209;-91
2021/12/18 02:38:20;;;;;;;16.80;9.00;;;;;;;;;;5065940;28;20254;-91
2021/12/18 02:41:05;;;;;;;12.43;7.77;;;;;;;;;;5073609;28;20225;-91
2021/12/18 02:43:33;;;;;;;14.23;8.90;;;;;;;;;;5072141;28;20204;-92
2021/12/18 02:46:06;;;;;;;15.00;8.37;;;;;;;;;;5073379;28;20221;-91
2021/12/18 02:48:33;;;;;;;16.70;9.20;;;;;;;;;;5073654;28;20228;-91
2021/12/18 02:51:01;;;;;;;16.07;9.77;;;;;;;;;;5073805;28;20225;-92
2021/12/18 02:53:30;;;;;;;14.10;8.13;;;;;;;;;;5068659;28;20612;-91
2021/12/18 02:55:58;;;;;;;12.27;7.40;;;;;;;;;;5073145;28;20204;-91
2021/12/18 02:58:26;;;;;;;15.17;8.80;;;;;;;;;;5066026;28;20244;-92
2021/12/18 03:00:53;;;;;;;13.70;8.07;;;;;;;;;;5066430;28;20682;-91
2021/12/18 03:03:24;;;;;;;14.27;9.10;;;;;;;;;;5073722;28;20736;-91
2021/12/18 03:06:04;;;;;;;15.27;8.67;;;;;;;;;;5073820;28;20209;-91
2021/12/18 03:08:42;;;;;;;14.37;8.20;;;;;;;;;;5074026;28;20228;-92
2021/12/18 03:24:57;;;;;;;14.07;7.90;;;;;;;;;;5063983;28;20638;-91
2021/12/18 03:27:24;;;;;;;13.23;7.73;;;;;;;;;;5072566;28;20255;-91
2021/12/18 03:29:52;;;;;;;14.93;8.40;;;;;;;;;;5072916;28;20705;-92
2021/12/18 03:32:19;;;;;;;13.13;7.57;;;;;;;;;;5076354;28;20247;-91
2021/12/18 03:34:47;;;;;;;15.67;9.53;;;;;;;;;;5077287;28;20209;-91
2021/12/18 03:37:14;;;;;;;13.13;8.77;;;;;;;;;;5076745;28;20625;-91
2021/12/18 03:39:42;;;;;;;11.30;6.40;;;;;;;;;;5076475;28;20200;-91
2021/12/18 03:42:10;;;;;;;14.20;8.60;;;;;;;;;;5076350;28;20232;-91
2021/12/18 03:44:39;;;;;;;11.50;7.70;;;;;;;;;;5076887;28;20310;-91
2021/12/18 03:47:07;;;;;;;15.33;8.77;;;;;;;;;;5074457;28;20209;-91
2021/12/18 03:49:34;;;;;;;12.17;7.97;;;;;;;;;;5076511;28;20258;-91
2021/12/18 03:52:01;;;;;;;10.60;6.97;;;;;;;;;;5076536;28;20279;-92
2021/12/18 03:54:29;;;;;;;13.67;7.97;;;;;;;;;;5076616;28;20201;-91
2021/12/18 03:56:57;;;;;;;13.13;8.03;;;;;;;;;;5074159;28;20206;-91
2021/12/18 03:59:25;;;;;;;13.23;8.20;;;;;;;;;;5076678;28;20255;-91
2021/12/18 04:01:53;;;;;;;15.00;8.03;;;;;;;;;;5076205;28;20229;-91
2021/12/18 04:04:20;;;;;;;12.87;8.33;;;;;;;;;;5076509;28;20255;-91
2021/12/18 04:06:48;;;;;;;10.70;6.93;;;;;;;;;;5076633;28;20212;-91
2021/12/18 04:09:15;;;;;;;11.30;8.00;;;;;;;;;;5076269;28;20198;-91
2021/12/18 04:11:43;;;;;;;14.00;8.87;;;;;;;;;;5076296;28;20286;-92
2021/12/18 04:14:12;;;;;;;11.30;7.20;;;;;;;;;;5067301;28;20216;-92
2021/12/18 04:16:40;;;;;;;12.33;7.80;;;;;;;;;;5071573;28;20304;-91
2021/12/18 04:19:08;;;;;;;13.73;7.33;;;;;;;;;;5075694;28;20251;-91
2021/12/18 04:21:35;;;;;;;11.83;7.13;;;;;;;;;;5075837;28;20225;-91
2021/12/18 04:24:03;;;;;;;12.97;6.83;;;;;;;;;;5070817;28;20255;-91
2021/12/18 04:26:31;;;;;;;11.20;7.60;;;;;;;;;;5076057;28;20205;-91
2021/12/18 04:28:58;;;;;;;13.10;7.90;;;;;;;;;;5075636;28;20209;-91
2021/12/18 04:31:25;;;;;;;11.40;7.13;;;;;;;;;;5075835;28;20555;-91
2021/12/18 04:33:54;;;;;;;13.00;8.03;;;;;;;;;;5077368;28;20201;-91
2021/12/18 04:36:22;;;;;;;13.03;8.17;;;;;;;;;;5079028;28;20213;-90
2021/12/18 04:38:49;;;;;;;11.90;7.00;;;;;;;;;;5080174;28;20205;-91
2021/12/18 04:41:22;;;;;;;11.67;7.43;;;;;;;;;;5076601;28;20244;-91
2021/12/18 04:43:50;;;;;;;11.90;7.07;;;;;;;;;;5075100;28;20233;-91
2021/12/18 04:46:17;;;;;;;13.17;7.70;;;;;;;;;;5075609;28;20202;-91
2021/12/18 04:48:44;;;;;;;12.53;8.10;;;;;;;;;;5075439;28;20205;-91
2021/12/18 04:51:13;;;;;;;12.60;7.83;;;;;;;;;;5075598;28;20221;-91
2021/12/18 04:53:40;;;;;;;13.17;8.63;;;;;;;;;;5075133;28;20247;-91
2021/12/18 04:56:08;;;;;;;11.10;7.67;;;;;;;;;;5075544;28;20201;-91
2021/12/18 04:58:35;;;;;;;10.63;6.60;;;;;;;;;;5075291;28;20255;-91
2021/12/18 05:01:02;;;;;;;12.70;7.20;;;;;;;;;;5068292;28;20245;-91
2021/12/18 05:03:30;;;;;;;10.90;6.93;;;;;;;;;;5069398;28;20251;-91
2021/12/18 05:05:59;;;;;;;12.80;7.60;;;;;;;;;;5075595;28;20205;-91
2021/12/18 05:08:28;;;;;;;10.93;7.13;;;;;;;;;;5074649;28;20213;-91
2021/12/18 05:10:55;;;;;;;10.50;7.07;;;;;;;;;;5075018;28;20229;-91
2021/12/18 05:13:23;;;;;;;13.50;7.43;;;;;;;;;;5075217;28;20206;-91
2021/12/18 05:15:50;;;;;;;11.30;7.27;;;;;;;;;;5075364;28;20266;-92
2021/12/18 05:18:17;;;;;;;10.10;6.27;;;;;;;;;;5071883;28;20209;-91
2021/12/18 05:20:45;;;;;;;11.20;6.83;;;;;;;;;;5074249;28;20322;-91
2021/12/18 05:23:12;;;;;;;12.93;6.87;;;;;;;;;;5074307;28;20245;-91
2021/12/18 05:25:40;;;;;;;13.30;7.20;;;;;;;;;;5075151;28;20197;-91
2021/12/18 05:28:08;;;;;;;10.37;6.80;;;;;;;;;;5074085;28;20240;-91
2021/12/18 05:30:35;;;;;;;10.30;5.90;;;;;;;;;;5074427;28;20698;-91
2021/12/18 05:33:02;;;;;;;13.13;7.47;;;;;;;;;;5075067;28;20221;-91
2021/12/18 05:35:30;;;;;;;11.77;7.00;;;;;;;;;;5074240;28;20274;-91
2021/12/18 05:38:04;;;;;;;10.70;5.93;;;;;;;;;;5073726;28;20236;-91
2021/12/18 05:40:32;;;;;;;9.97;6.50;;;;;;;;;;5074491;28;20695;-91
2021/12/18 05:43:01;;;;;;;11.47;6.67;;;;;;;;;;5074501;28;20658;-91
2021/12/18 05:45:28;;;;;;;8.90;5.50;;;;;;;;;;5071172;28;20206;-91
2021/12/18 05:47:55;;;;;;;11.17;6.30;;;;;;;;;;5072106;28;20205;-91
2021/12/18 05:50:27;;;;;;;9.90;5.40;;;;;;;;;;5073718;28;20654;-92
2021/12/18 05:52:54;;;;;;;10.40;6.30;;;;;;;;;;5074476;28;20197;-91
2021/12/18 05:55:23;;;;;;;12.23;7.27;;;;;;;;;;5067377;28;20217;-91
2021/12/18 05:58:04;;;;;;;11.03;7.10;;;;;;;;;;5063981;28;20202;-91
2021/12/18 06:00:31;;;;;;;12.20;6.90;;;;;;;;;;5074172;28;20273;-91
2021/12/18 06:02:58;;;;;;;10.73;6.33;;;;;;;;;;5073870;28;20220;-91
2021/12/18 06:05:26;;;;;;;13.80;7.33;;;;;;;;;;5074399;28;20259;-91
2021/12/18 06:07:56;;;;;;;11.00;6.90;;;;;;;;;;5074177;28;20640;-92
2021/12/18 06:10:25;;;;;;;10.40;6.67;;;;;;;;;;5073914;28;20224;-91
2021/12/18 06:12:52;;;;;;;9.77;5.53;;;;;;;;;;5074156;28;20235;-91
2021/12/18 06:15:21;;;;;;;10.77;6.60;;;;;;;;;;5073698;28;20205;-91
2021/12/18 06:17:48;;;;;;;10.70;6.47;;;;;;;;;;5074339;28;20229;-91
2021/12/18 06:20:16;;;;;;;12.10;6.30;;;;;;;;;;5073264;28;20209;-91
2021/12/18 06:22:43;;;;;;;9.77;5.83;;;;;;;;;;5073196;28;20225;-90
2021/12/18 06:25:10;;;;;;;10.97;7.17;;;;;;;;;;5073502;28;20205;-91
2021/12/18 06:27:38;;;;;;;8.53;5.40;;;;;;;;;;5073156;28;20209;-91
2021/12/18 06:30:06;;;;;;;11.13;7.23;;;;;;;;;;5070654;28;20236;-90
2021/12/18 06:32:34;;;;;;;9.97;6.27;;;;;;;;;;5073066;28;20217;-91
2021/12/18 06:35:02;;;;;;;11.37;6.70;;;;;;;;;;5073382;28;20551;-91
2021/12/18 06:37:29;;;;;;;9.60;6.40;;;;;;;;;;5068512;28;20635;-91
2021/12/18 06:39:57;;;;;;;11.27;7.33;;;;;;;;;;5070527;28;20208;-91
2021/12/18 06:42:24;;;;;;;11.50;6.47;;;;;;;;;;5072832;28;20658;-91
2021/12/18 06:44:51;;;;;;;9.60;5.70;;;;;;;;;;5073008;28;20262;-90
2021/12/18 06:47:19;;;;;;;10.27;6.50;;;;;;;;;;5069092;28;20221;-91
2021/12/18 06:49:48;;;;;;;10.07;6.13;;;;;;;;;;5072717;28;20201;-91
2021/12/18 06:52:15;;;;;;;8.83;5.80;;;;;;;;;;5052753;28;20824;-91
2021/12/18 06:54:42;;;;;;;10.17;6.33;;;;;;;;;;5060202;28;20205;-92
2021/12/18 06:57:10;;;;;;;9.40;5.80;;;;;;;;;;5072498;28;20201;-91
2021/12/18 06:59:37;;;;;;;10.73;6.03;;;;;;;;;;5073110;28;20612;-91
2021/12/18 07:02:04;;;;;;;10.10;5.97;;;;;;;;;;5079080;28;20245;-91
2021/12/18 07:04:32;;;;;;;11.07;6.67;;;;;;;;;;5069134;28;20652;-91
2021/12/18 07:07:01;;;;;;;8.20;5.63;;;;;;;;;;5075049;28;20639;-91
2021/12/18 07:09:28;;;;;;;9.80;5.80;;;;;;;;;;5078910;28;20213;-91
2021/12/18 07:11:55;;;;;;;7.67;4.80;;;;;;;;;;5078777;28;20294;-91
2021/12/18 07:14:22;;;;;;;9.03;5.47;;;;;;;;;;5069984;28;20715;-92
2021/12/18 07:16:50;;;;;;;9.40;6.07;;;;;;;;;;5076357;28;20197;-92
2021/12/18 07:19:17;;;;;;;9.23;5.80;;;;;;;;;;5076577;28;20255;-91
2021/12/18 07:21:44;;;;;;;7.83;5.23;;;;;;;;;;5074500;28;20716;-91
2021/12/18 07:24:13;;;;;;;10.27;5.83;;;;;;;;;;5080763;28;20201;-91
2021/12/18 07:26:41;;;;;;;8.33;5.23;;;;;;;;;;5079015;28;20262;-91
2021/12/18 07:29:08;;;;;;;8.10;5.47;;;;;;;;;;5076322;28;20205;-91
2021/12/18 07:31:36;;;;;;;8.33;5.27;;;;;;;;;;5072324;28;20225;-91
2021/12/18 07:34:03;;;;;;;9.97;5.73;;;;;;;;;;5076263;28;20627;-91
2021/12/18 07:36:30;;;;;;;8.83;5.50;;;;;;;;;;5077389;28;20262;-91
2021/12/18 07:38:58;;;;;;;9.50;5.53;;;;;;;;;;5073796;28;20275;-91
2021/12/18 07:41:26;;;;;;;9.13;5.73;;;;;;;;;;5075956;28;20213;-91
2021/12/18 07:43:54;;;;;;;8.10;5.43;;;;;;;;;;5075622;28;20225;-91
2021/12/18 07:46:21;;;;;;;12.00;6.83;;;;;;;;;;5075025;28;20275;-92
2021/12/18 07:48:48;;;;;;;11.07;6.90;;;;;;;;;;5078603;28;20206;-92
2021/12/18 07:51:16;;;;;;;11.30;6.77;;;;;;;;;;5077803;28;20233;-91
2021/12/18 07:53:43;;;;;;;9.47;6.07;;;;;;;;;;5076775;28;20255;-91
2021/12/18 07:56:10;;;;;;;10.73;6.23;;;;;;;;;;5075863;28;20209;-91
2021/12/18 07:58:40;;;;;;;9.70;6.07;;;;;;;;;;5075102;28;20209;-92
2021/12/18 08:01:07;;;;;;;11.67;6.33;;;;;;;;;;5075328;28;20235;-91
2021/12/18 08:03:35;;;;;;;11.30;6.60;;;;;;;;;;5075079;28;20217;-91
2021/12/18 08:06:02;;;;;;;11.70;6.20;;;;;;;;;;5074818;28;20213;-92
2021/12/18 08:08:29;;;;;;;12.07;7.20;;;;;;;;;;5075020;28;20225;-91
2021/12/18 08:10:57;;;;;;;10.43;6.40;;;;;;;;;;5075484;28;20241;-92
2021/12/18 08:13:24;;;;;;;10.60;6.80;;;;;;;;;;5073473;28;20198;-91
2021/12/18 08:15:53;;;;;;;10.17;5.53;;;;;;;;;;5073573;28;20205;-91
2021/12/18 08:18:20;;;;;;;9.00;5.30;;;;;;;;;;5073873;28;20553;-91
2021/12/18 08:20:47;;;;;;;13.30;5.93;;;;;;;;;;5075467;28;20271;-91
2021/12/18 08:23:15;;;;;;;8.17;5.47;;;;;;;;;;5072450;28;20222;-91
2021/12/18 08:25:42;;;;;;;10.43;6.10;;;;;;;;;;5075169;28;20205;-91
2021/12/18 08:28:09;;;;;;;12.37;5.87;;;;;;;;;;5075100;28;20221;-91
2021/12/18 08:30:38;;;;;;;10.40;6.23;;;;;;;;;;5065107;28;20279;-91
2021/12/18 08:33:07;;;;;;;10.03;6.70;;;;;;;;;;5074447;28;20257;-92
2021/12/18 08:35:34;;;;;;;11.73;5.63;;;;;;;;;;5075248;28;20223;-91
2021/12/18 08:38:02;;;;;;;12.77;6.40;;;;;;;;;;5074623;28;20219;-91
2021/12/18 08:40:30;;;;;;;10.33;6.47;;;;;;;;;;5071085;28;20197;-92
2021/12/18 08:42:57;;;;;;;10.57;5.67;;;;;;;;;;5071329;28;20222;-91
2021/12/18 08:45:25;;;;;;;9.57;6.13;;;;;;;;;;5074874;28;20233;-91
2021/12/18 08:47:52;;;;;;;9.67;6.00;;;;;;;;;;5073817;28;20202;-91
2021/12/18 08:50:21;;;;;;;10.20;6.30;;;;;;;;;;5074431;28;20279;-91
2021/12/18 08:52:49;;;;;;;8.10;5.17;;;;;;;;;;5074783;28;20262;-91
2021/12/18 08:55:18;;;;;;;7.50;5.10;;;;;;;;;;5067533;28;20206;-92
2021/12/18 08:57:46;;;;;;;9.17;5.80;;;;;;;;;;5073878;28;20205;-91
2021/12/18 09:00:14;;;;;;;8.13;5.57;;;;;;;;;;5066390;28;20206;-91
2021/12/18 09:02:42;;;;;;;10.20;5.47;;;;;;;;;;5074614;28;20221;-92
2021/12/18 09:05:10;;;;;;;9.00;5.53;;;;;;;;;;5073945;28;20205;-92
2021/12/18 09:07:39;;;;;;;13.80;6.30;;;;;;;;;;5074364;28;20665;-92
2021/12/18 09:10:07;;;;;;;18.43;9.50;;;;;;;;;;5074327;28;20275;-91
2021/12/18 09:12:34;;;;;;;11.47;6.60;;;;;;;;;;5069907;28;20291;-91
2021/12/18 09:15:02;;;;;;;9.53;6.10;;;;;;;;;;5072786;28;20198;-92
2021/12/18 09:17:29;;;;;;;11.20;5.93;;;;;;;;;;5074135;28;20550;-91
2021/12/18 09:19:56;;;;;;;9.37;5.63;;;;;;;;;;5074617;28;20209;-91
2021/12/18 09:22:24;;;;;;;9.03;5.67;;;;;;;;;;5073677;28;20228;-92
2021/12/18 09:24:52;;;;;;;10.27;5.63;;;;;;;;;;5073925;28;20221;-91
2021/12/18 09:27:22;;;;;;;8.73;5.30;;;;;;;;;;5074220;28;20251;-91
2021/12/18 09:29:49;;;;;;;8.20;5.70;;;;;;;;;;5073233;28;20205;-92
2021/12/18 09:32:16;;;;;;;8.97;5.20;;;;;;;;;;5070174;28;20275;-91
2021/12/18 09:35:13;;;;;;;10.27;5.40;;;;;;;;;;5067389;28;20672;-91
2021/12/18 09:37:40;;;;;;;6.80;4.53;;;;;;;;;;5071408;28;20297;-91
2021/12/18 09:40:12;;;;;;;9.23;5.50;;;;;;;;;;5074249;28;20277;-91
2021/12/18 09:42:39;;;;;;;10.03;5.60;;;;;;;;;;5072801;28;20221;-92
2021/12/18 09:45:08;;;;;;;8.13;5.53;;;;;;;;;;5073511;28;20213;-91
2021/12/18 09:47:35;;;;;;;8.03;5.13;;;;;;;;;;5080345;28;20205;-91
2021/12/18 09:50:03;;;;;;;8.83;5.03;;;;;;;;;;5065718;28;20237;-91
2021/12/18 09:52:31;;;;;;;9.23;5.20;;;;;;;;;;5072195;28;20578;-91
2021/12/18 09:54:58;;;;;;;7.40;4.77;;;;;;;;;;5073516;28;20205;-91
2021/12/18 09:57:33;;;;;;;7.67;5.10;;;;;;;;;;5070080;28;20209;-91
2021/12/18 10:00:01;;;;;;;9.37;5.07;;;;;;;;;;5073340;28;20262;-91
2021/12/18 10:02:28;;;;;;;11.57;5.67;;;;;;;;;;5073170;28;20217;-91
2021/12/18 10:04:56;;;;;;;8.90;5.40;;;;;;;;;;5071938;28;20598;-91
2021/12/18 10:07:25;;;;;;;10.77;5.90;;;;;;;;;;5073274;28;20228;-91
2021/12/18 10:09:53;;;;;;;11.07;5.63;;;;;;;;;;5073179;28;20259;-91
2021/12/18 10:12:22;;;;;;;9.00;5.60;;;;;;;;;;5071881;28;20714;-91
2021/12/18 10:14:52;;;;;;;9.67;6.50;;;;;;;;;;5063798;28;20205;-91
2021/12/18 10:17:21;;;;;;;8.57;5.37;;;;;;;;;;5072828;28;20603;-91
2021/12/18 10:19:48;;;;;;;11.57;7.30;;;;;;;;;;5073452;28;20213;-91
2021/12/18 10:22:15;;;;;;;9.73;5.53;;;;;;;;;;5073125;28;20225;-91
2021/12/18 10:24:44;;;;;;;9.67;6.10;;;;;;;;;;5073460;28;20294;-91
2021/12/18 10:27:20;;;;;;;11.03;6.43;;;;;;;;;;5074151;28;20209;-91
2021/12/18 10:29:49;;;;;;;9.53;5.47;;;;;;;;;;5072863;28;20235;-92
2021/12/18 10:32:21;;;;;;;9.83;6.00;;;;;;;;;;5073830;28;20247;-92
2021/12/18 10:34:51;;;;;;;11.57;6.40;;;;;;;;;;5073731;28;20253;-92
2021/12/18 10:37:20;;;;;;;10.00;5.47;;;;;;;;;;5073291;28;20197;-92
2021/12/18 10:39:57;;;;;;;11.10;6.10;;;;;;;;;;5063650;28;20416;-92
2021/12/18 10:42:26;;;;;;;10.97;6.33;;;;;;;;;;5075592;28;20632;-92
2021/12/18 10:44:57;;;;;;;17.33;9.73;;;;;;;;;;5077011;28;20240;-92
2021/12/18 10:47:43;;;;;;;10.53;7.20;;;;;;;;;;5076391;28;20212;-92
2021/12/18 10:50:17;;;;;;;16.93;9.03;;;;;;;;;;5077035;28;20197;-92
2021/12/18 10:52:45;;;;;;;14.17;8.97;;;;;;;;;;5077530;28;20204;-92
2021/12/18 10:55:33;;;;;;;11.57;7.10;;;;;;;;;;5075738;28;20227;-92
2021/12/18 10:58:08;;;;;;;12.03;8.00;;;;;;;;;;5076183;28;20205;-92
2021/12/18 11:00:41;;;;;;;10.47;6.57;;;;;;;;;;5076911;28;20228;-92
2021/12/18 11:03:19;;;;;;;12.20;7.47;;;;;;;;;;5077025;28;20290;-92
2021/12/18 11:06:02;;;;;;;12.00;7.53;;;;;;;;;;5075486;28;20200;-92
2021/12/18 11:08:29;;;;;;;11.17;7.10;;;;;;;;;;5062500;28;20201;-92
2021/12/18 11:13:38;;;;;;;10.53;6.80;;;;;;;;;;5076035;28;20808;-92
2021/12/18 11:13:48;;;;;;;10.60;6.67;;;;;;;;;;5070763;28;20205;-92
2021/12/18 11:16:16;;;;;;;10.87;6.37;;;;;;;;;;5075903;28;20550;-92
2021/12/18 11:18:45;;;;;;;10.70;6.90;;;;;;;;;;5076643;28;20194;-92
2021/12/18 11:21:14;;;;;;;11.33;6.83;;;;;;;;;;5076738;28;20229;-92
2021/12/18 11:23:44;;;;;;;10.67;7.10;;;;;;;;;;5074690;28;20233;-92
2021/12/18 11:26:20;;;;;;;10.93;7.17;;;;;;;;;;5069328;28;20205;-92
2021/12/18 11:28:53;;;;;;;9.97;7.13;;;;;;;;;;5073103;28;20286;-92
2021/12/18 11:34:12;;;;;;;15.57;7.73;;;;;;;;;;5067906;28;20185;-92
2021/12/18 11:37:05;;;;;;;12.80;7.83;;;;;;;;;;5075132;28;20642;-92
2021/12/18 11:39:34;;;;;;;13.37;8.60;;;;;;;;;;5076172;28;20202;-92
2021/12/18 11:42:01;;;;;;;14.17;7.97;;;;;;;;;;5073175;28;20241;-92
2021/12/18 11:44:30;;;;;;;16.20;10.37;;;;;;;;;;5075761;28;20217;-92
2021/12/18 11:47:00;;;;;;;13.63;8.73;;;;;;;;;;5073110;28;21771;-92
2021/12/18 11:49:44;;;;;;;15.97;9.20;;;;;;;;;;5072818;28;20724;-92
2021/12/18 11:52:11;;;;;;;16.33;9.23;;;;;;;;;;5075413;28;20225;-91
2021/12/18 11:54:49;;;;;;;13.43;7.57;;;;;;;;;;5075976;28;20288;-92
2021/12/18 11:57:31;;;;;;;15.57;8.43;;;;;;;;;;5068352;28;20587;-92
2021/12/18 11:59:58;;;;;;;16.10;9.63;;;;;;;;;;5074859;28;20224;-92
2021/12/18 12:02:42;;;;;;;14.53;9.53;;;;;;;;;;5076003;28;20217;-92
2021/12/18 12:05:10;;;;;;;12.50;7.90;;;;;;;;;;5075845;28;20270;-92
2021/12/18 12:07:38;;;;;;;12.27;8.33;;;;;;;;;;5075226;28;20201;-92
2021/12/18 12:10:46;;;;;;;14.40;8.13;;;;;;;;;;5075567;28;20292;-92
2021/12/18 12:13:13;;;;;;;14.33;8.40;;;;;;;;;;5075338;28;20213;-92
2021/12/18 12:15:52;;;;;;;15.93;8.77;;;;;;;;;;5071850;28;20233;-92
2021/12/18 12:18:19;;;;;;;16.40;10.27;;;;;;;;;;5072272;28;20205;-92
2021/12/18 12:20:47;;;;;;;15.73;9.00;;;;;;;;;;5075738;28;20217;-93
2021/12/18 12:23:15;;;;;;;15.67;7.47;;;;;;;;;;5076223;28;20255;-92
2021/12/18 12:25:53;;;;;;;15.37;8.50;;;;;;;;;;5075371;28;20205;-90
2021/12/18 12:28:23;;;;;;;16.27;9.47;;;;;;;;;;5074514;28;20284;-90
2021/12/18 12:30:52;;;;;;;14.30;8.53;;;;;;;;;;5075698;28;20217;-90
2021/12/18 12:33:30;;;;;;;16.00;8.63;;;;;;;;;;5075984;28;20281;-91
2021/12/18 12:36:02;;;;;;;13.63;8.33;;;;;;;;;;5071318;28;20212;-90
2021/12/18 12:38:31;;;;;;;15.40;9.30;;;;;;;;;;5075251;28;20197;-90
2021/12/18 12:40:58;;;;;;;13.43;8.03;;;;;;;;;;5075348;28;20229;-90
2021/12/18 12:43:30;;;;;;;17.43;9.87;;;;;;;;;;5072112;28;20209;-90
2021/12/18 12:46:04;;;;;;;17.47;10.00;;;;;;;;;;5072763;28;20852;-90
2021/12/18 12:48:46;;;;;;;16.37;9.60;;;;;;;;;;5075113;28;20236;-90
2021/12/18 12:51:14;;;;;;;15.00;9.07;;;;;;;;;;5071126;28;20221;-90
2021/12/18 12:53:59;;;;;;;18.10;9.97;;;;;;;;;;5084547;28;20275;-91
2021/12/18 12:56:27;;;;;;;16.70;10.30;;;;;;;;;;5083354;28;20209;-90
2021/12/18 12:59:09;;;;;;;19.60;9.80;;;;;;;;;;5079109;28;20209;-90
2021/12/18 13:01:40;;;;;;;16.00;10.17;;;;;;;;;;5074271;28;20279;-91
2021/12/18 13:04:19;;;;;;;18.93;11.13;;;;;;;;;;5074222;28;20587;-91
2021/12/18 13:06:58;;;;;;;17.80;10.03;;;;;;;;;;5074601;28;20286;-91
2021/12/18 13:09:29;;;;;;;17.17;10.57;;;;;;;;;;5068792;28;20201;-90
2021/12/18 13:12:01;;;;;;;18.07;10.50;;;;;;;;;;5075455;28;20287;-91
2021/12/18 13:14:36;;;;;;;19.43;10.43;;;;;;;;;;5077962;28;20209;-91
2021/12/18 13:17:20;;;;;;;19.27;10.83;;;;;;;;;;5069526;28;20239;-92
2021/12/18 13:19:53;;;;;;;17.37;10.00;;;;;;;;;;5071159;28;20263;-92
2021/12/18 13:22:22;;;;;;;16.80;10.37;;;;;;;;;;5074576;28;20231;-90
2021/12/18 13:25:01;;;;;;;16.57;9.80;;;;;;;;;;5071898;28;20229;-90
2021/12/18 13:27:31;;;;;;;18.70;10.07;;;;;;;;;;5070507;28;20229;-91
2021/12/18 13:30:12;;;;;;;20.13;11.60;;;;;;;;;;5073606;28;20218;-90
2021/12/18 13:32:51;;;;;;;19.13;11.50;;;;;;;;;;5073812;28;20294;-90
2021/12/18 13:35:19;;;;;;;17.50;10.03;;;;;;;;;;5062918;28;20205;-90
2021/12/18 13:37:55;;;;;;;17.23;10.53;;;;;;;;;;5073099;28;20658;-90
2021/12/18 13:40:22;;;;;;;19.37;10.83;;;;;;;;;;5073697;28;20257;-90
2021/12/18 13:42:49;;;;;;;18.03;10.47;;;;;;;;;;5073581;28;20555;-91
2021/12/18 13:45:17;;;;;;;19.77;10.63;;;;;;;;;;5064477;28;20267;-90
2021/12/18 13:47:48;;;;;;;18.67;10.23;;;;;;;;;;5076747;28;20708;-91
2021/12/18 13:50:20;;;;;;;18.27;10.43;;;;;;;;;;5070409;28;20205;-90
2021/12/18 13:52:48;;;;;;;18.33;10.47;;;;;;;;;;5073386;28;20666;-91
2021/12/18 13:55:33;;;;;;;18.53;10.53;;;;;;;;;;5060964;28;20642;-91
2021/12/18 13:58:01;;;;;;;18.70;10.93;;;;;;;;;;5070764;28;20213;-91
2021/12/18 14:00:29;;;;;;;18.47;9.30;;;;;;;;;;5072997;28;20205;-91
2021/12/18 14:02:58;;;;;;;16.93;9.50;;;;;;;;;;5061460;28;20214;-91
2021/12/18 14:05:25;;;;;;;17.77;9.77;;;;;;;;;;5067404;28;20271;-90
2021/12/18 14:07:53;;;;;;;18.10;10.33;;;;;;;;;;5072812;28;20201;-91
2021/12/18 14:10:22;;;;;;;18.43;10.43;;;;;;;;;;5070049;28;20258;-91
2021/12/18 14:12:49;;;;;;;15.93;10.70;;;;;;;;;;5068733;28;20604;-90
2021/12/18 14:15:19;;;;;;;17.80;10.07;;;;;;;;;;5072405;28;20213;-90
2021/12/18 14:17:47;;;;;;;15.97;10.27;;;;;;;;;;5072771;28;20205;-91
2021/12/18 14:20:16;;;;;;;16.73;10.53;;;;;;;;;;5066563;28;20727;-90
2021/12/18 14:22:53;;;;;;;15.93;9.53;;;;;;;;;;5072252;28;20568;-90
2021/12/18 14:25:22;;;;;;;16.33;9.33;;;;;;;;;;5064933;28;20221;-90
2021/12/18 14:27:53;;;;;;;17.30;10.50;;;;;;;;;;5062031;28;20202;-92
2021/12/18 14:30:38;;;;;;;16.37;9.50;;;;;;;;;;5068382;28;20197;-90
2021/12/18 14:33:10;;;;;;;18.50;11.07;;;;;;;;;;5070095;28;20201;-91
2021/12/18 14:35:49;;;;;;;13.60;8.17;;;;;;;;;;5070439;28;20204;-92
2021/12/18 14:38:17;;;;;;;15.57;9.90;;;;;;;;;;5063923;28;20296;-91
2021/12/18 14:43:58;;;;;;;15.73;8.87;;;;;;;;;;5065846;28;20197;-90
2021/12/18 14:46:31;;;;;;;14.37;9.07;;;;;;;;;;5063155;28;20713;-89
2021/12/18 14:49:09;;;;;;;11.93;8.07;;;;;;;;;;5072087;28;20634;-90
2021/12/18 14:51:38;;;;;;;13.03;8.30;;;;;;;;;;5072233;28;20221;-90
2021/12/18 14:54:06;;;;;;;13.37;8.07;;;;;;;;;;5072831;28;20255;-90
2021/12/18 14:56:34;;;;;;;14.27;8.30;;;;;;;;;;5063252;28;20287;-90
2021/12/18 14:59:01;;;;;;;15.37;8.37;;;;;;;;;;5071568;28;20208;-91
2021/12/18 15:01:29;;;;;;;11.53;7.60;;;;;;;;;;5072177;28;20312;-90
2021/12/18 15:03:57;;;;;;;13.40;8.00;;;;;;;;;;5071131;28;20236;-90
2021/12/18 15:06:25;;;;;;;11.30;8.00;;;;;;;;;;5071816;28;20247;-90
2021/12/18 15:08:57;;;;;;;15.90;8.83;;;;;;;;;;5072426;28;20247;-90
2021/12/18 15:11:26;;;;;;;16.70;9.50;;;;;;;;;;5072400;28;20282;-89
2021/12/18 15:13:54;;;;;;;15.13;9.83;;;;;;;;;;5065880;28;20205;-88
2021/12/18 15:16:35;;;;;;;20.37;11.17;;;;;;;;;;5067387;28;20646;-88
2021/12/18 15:19:04;;;;;;;20.33;10.27;;;;;;;;;;5071845;28;20689;-88
2021/12/18 15:21:32;;;;;;;15.40;9.07;;;;;;;;;;5072060;28;20237;-88
2021/12/18 15:24:01;;;;;;;23.33;12.20;;;;;;;;;;5056754;28;20205;-89